Time;durP1;ratioP1;P1;durP2;ratioP2;P2;SDS_P1;SDS_P2;PMS_P1;PMS_P2;Temp;Humidity;BMP_temperature;BMP_pressure;BME280_temperature;BME280_humidity;BME280_pressure;Samples;Min_cycle;Max_cycle;Signal;HPM_P1;HPM_P2
2021/10/16 00:01:53;;;;;;;5.40;3.83;;;6.20;1.00;;;;;;5061742;28;20421;-72
2021/10/16 00:04:19;;;;;;;8.93;4.53;;;;;;;;;;5055693;28;20664;-72
2021/10/16 00:06:45;;;;;;;9.20;4.20;;;;;;;;;;5051352;28;20188;-73
2021/10/16 00:09:11;;;;;;;5.07;4.13;;;6.20;1.00;;;;;;5056466;28;20910;-72
2021/10/16 00:11:37;;;;;;;7.60;3.17;;;;;;;;;;5041882;28;20439;-73
2021/10/16 00:14:04;;;;;;;6.67;3.03;;;6.10;1.00;;;;;;5036872;28;20425;-74
2021/10/16 00:16:30;;;;;;;5.50;4.17;;;;;;;;;;5037909;28;20927;-74
2021/10/16 00:18:58;;;;;;;14.73;4.50;;;6.10;1.00;;;;;;5055739;28;20425;-74
2021/10/16 00:21:24;;;;;;;5.90;4.03;;;;;;;;;;5052449;28;20950;-74
2021/10/16 00:23:50;;;;;;;6.00;2.87;;;;;;;;;;5047047;28;20497;-74
2021/10/16 00:26:16;;;;;;;9.10;3.63;;;6.10;1.00;;;;;;5056951;28;20431;-74
2021/10/16 00:28:42;;;;;;;4.50;2.90;;;6.10;1.00;;;;;;5045640;28;20509;-74
2021/10/16 00:31:08;;;;;;;5.00;3.07;;;6.00;1.00;;;;;;5040983;28;20447;-74
2021/10/16 00:33:33;;;;;;;5.37;2.47;;;6.10;1.00;;;;;;5063520;28;20605;-74
2021/10/16 00:36:00;;;;;;;27.23;4.20;;;;;;;;;;5052248;28;20234;-74
2021/10/16 00:38:25;;;;;;;4.50;2.83;;;6.10;1.00;;;;;;5043818;28;20195;-74
2021/10/16 00:40:51;;;;;;;4.23;2.83;;;6.10;1.00;;;;;;5055219;28;20494;-74
2021/10/16 00:43:22;;;;;;;2.40;2.20;;;6.10;1.00;;;;;;5055829;28;20180;-73
2021/10/16 00:45:47;;;;;;;2.70;2.43;;;6.00;1.00;;;;;;5042285;28;20650;-74
2021/10/16 00:48:13;;;;;;;7.40;2.80;;;6.00;1.00;;;;;;5047318;28;20466;-74
2021/10/16 00:50:39;;;;;;;4.27;3.00;;;;;;;;;;5038345;28;20194;-74
2021/10/16 00:53:12;;;;;;;5.60;3.70;;;5.90;1.00;;;;;;5051249;28;20651;-74
2021/10/16 00:55:39;;;;;;;3.70;2.53;;;5.90;1.00;;;;;;5049376;28;20473;-74
2021/10/16 00:58:04;;;;;;;3.97;2.40;;;5.80;1.00;;;;;;5051039;28;20428;-74
2021/10/16 01:00:30;;;;;;;3.23;2.43;;;5.80;1.00;;;;;;5055784;28;20505;-72
2021/10/16 01:03:00;;;;;;;5.00;2.67;;;5.70;1.00;;;;;;5034531;28;20539;-73
2021/10/16 01:05:25;;;;;;;3.40;2.70;;;5.70;1.00;;;;;;5047609;28;20460;-72
2021/10/16 01:07:51;;;;;;;5.70;2.53;;;;;;;;;;5053983;28;20425;-72
2021/10/16 01:10:17;;;;;;;4.57;2.97;;;;;;;;;;5040859;28;20240;-72
2021/10/16 01:12:44;;;;;;;4.10;3.40;;;5.60;1.00;;;;;;5055349;28;20457;-72
2021/10/16 01:15:12;;;;;;;5.50;2.80;;;5.60;1.00;;;;;;5054003;28;20426;-72
2021/10/16 01:17:40;;;;;;;4.43;3.70;;;;;;;;;;5035340;28;20407;-72
2021/10/16 01:20:10;;;;;;;5.03;3.03;;;5.50;1.00;;;;;;5046641;28;20422;-72
2021/10/16 01:22:40;;;;;;;5.93;3.87;;;5.40;1.00;;;;;;5055010;28;20418;-72
2021/10/16 01:25:11;;;;;;;4.47;3.73;;;5.40;1.00;;;;;;5048180;28;20506;-72
2021/10/16 01:27:37;;;;;;;8.00;4.60;;;;;;;;;;5049336;28;20411;-72
2021/10/16 01:30:05;;;;;;;6.67;4.07;;;5.30;1.00;;;;;;5047328;28;20438;-72
2021/10/16 01:32:33;;;;;;;7.67;4.07;;;5.30;1.00;;;;;;5043942;28;20886;-72
2021/10/16 01:34:58;;;;;;;6.35;4.22;;;5.20;1.00;;;;;;5044522;28;20425;-72
2021/10/16 01:37:24;;;;;;;3.73;3.40;;;5.20;1.00;;;;;;5054368;28;20208;-72
2021/10/16 01:39:52;;;;;;;17.80;3.87;;;5.20;1.00;;;;;;5041596;28;20196;-72
2021/10/16 01:42:17;;;;;;;25.33;3.23;;;5.20;1.00;;;;;;5051054;28;20249;-72
2021/10/16 01:44:43;;;;;;;8.93;3.77;;;5.10;1.00;;;;;;5052610;28;20900;-74
2021/10/16 01:47:09;;;;;;;4.87;3.40;;;;;;;;;;5047754;28;20175;-74
2021/10/16 01:49:36;;;;;;;5.73;3.60;;;5.10;1.00;;;;;;5035790;28;20179;-74
2021/10/16 01:52:03;;;;;;;6.40;4.07;;;5.10;1.00;;;;;;5036913;28;20529;-75
2021/10/16 01:54:29;;;;;;;4.63;3.60;;;;;;;;;;5054412;28;20791;-74
2021/10/16 01:56:56;;;;;;;5.53;3.80;;;;;;;;;;5051012;28;20524;-74
2021/10/16 01:59:23;;;;;;;7.68;3.33;;;4.90;1.00;;;;;;5053734;28;20467;-74
2021/10/16 02:01:49;;;;;;;8.17;3.53;;;;;;;;;;5045775;28;20172;-74
2021/10/16 02:04:15;;;;;;;5.68;3.50;;;;;;;;;;5040918;28;20409;-74
2021/10/16 02:06:42;;;;;;;5.63;4.00;;;4.80;1.00;;;;;;5052368;28;20168;-74
2021/10/16 02:09:08;;;;;;;6.05;3.72;;;4.70;1.00;;;;;;5037187;28;20433;-74
2021/10/16 02:11:35;;;;;;;5.93;3.90;;;4.70;1.00;;;;;;5051821;28;20192;-74
2021/10/16 02:14:01;;;;;;;5.43;4.55;;;;;;;;;;5042021;28;20258;-74
2021/10/16 02:16:28;;;;;;;5.83;3.87;;;4.70;1.00;;;;;;5041312;28;20255;-73
2021/10/16 02:18:54;;;;;;;6.07;4.13;;;;;;;;;;5053472;28;20584;-72
2021/10/16 02:21:21;;;;;;;8.38;4.22;;;4.60;1.00;;;;;;5052140;28;20395;-72
2021/10/16 02:23:47;;;;;;;9.63;4.60;;;;;;;;;;5042898;28;20529;-72
2021/10/16 02:26:13;;;;;;;8.63;4.63;;;4.60;1.00;;;;;;5040633;28;20783;-72
2021/10/16 02:28:39;;;;;;;6.47;4.67;;;;;;;;;;5052027;28;20218;-72
2021/10/16 02:31:10;;;;;;;8.43;4.73;;;4.60;1.00;;;;;;5043758;28;20426;-74
2021/10/16 02:33:36;;;;;;;7.13;4.47;;;4.50;1.00;;;;;;5039237;28;20750;-74
2021/10/16 02:36:02;;;;;;;10.60;4.67;;;4.50;1.00;;;;;;5049574;28;20239;-74
2021/10/16 02:38:27;;;;;;;8.20;5.43;;;4.50;1.00;;;;;;5053837;28;20172;-74
2021/10/16 02:40:53;;;;;;;7.30;4.77;;;4.50;1.00;;;;;;5047887;28;20474;-74
2021/10/16 02:43:19;;;;;;;11.47;3.97;;;4.40;1.00;;;;;;5052030;28;20619;-74
2021/10/16 02:45:45;;;;;;;7.40;5.07;;;4.40;1.00;;;;;;5053974;28;20175;-72
2021/10/16 02:48:10;;;;;;;8.23;4.47;;;4.40;1.00;;;;;;5050357;28;20176;-72
2021/10/16 02:50:36;;;;;;;7.10;4.00;;;4.30;1.00;;;;;;5043349;28;20187;-72
2021/10/16 02:53:02;;;;;;;10.50;6.50;;;4.30;1.00;;;;;;5044420;28;20177;-72
2021/10/16 02:55:28;;;;;;;8.33;4.90;;;4.20;1.00;;;;;;5044537;28;20650;-72
2021/10/16 02:57:53;;;;;;;9.03;4.90;;;4.20;1.00;;;;;;5043265;28;20176;-72
2021/10/16 03:00:19;;;;;;;10.30;4.40;;;;;;;;;;5042933;28;20200;-74
2021/10/16 03:02:46;;;;;;;10.68;4.95;;;;;;;;;;5051878;28;20168;-74
2021/10/16 03:05:12;;;;;;;5.90;4.60;;;4.10;1.00;;;;;;5047327;28;20550;-74
2021/10/16 03:07:38;;;;;;;9.67;4.77;;;4.10;1.00;;;;;;5048364;28;20496;-74
2021/10/16 03:10:04;;;;;;;6.80;4.83;;;4.10;1.00;;;;;;5053332;28;20259;-74
2021/10/16 03:12:34;;;;;;;5.82;4.97;;;4.10;1.00;;;;;;5053367;28;20266;-74
2021/10/16 03:15:00;;;;;;;8.70;5.37;;;;;;;;;;5052005;28;20545;-73
2021/10/16 03:17:26;;;;;;;8.57;4.60;;;;;;;;;;5053272;28;20460;-72
2021/10/16 03:19:52;;;;;;;6.10;4.05;;;4.10;1.00;;;;;;5059517;28;20190;-73
2021/10/16 03:22:18;;;;;;;6.73;4.30;;;4.20;1.00;;;;;;5053203;28;20210;-72
2021/10/16 03:24:46;;;;;;;6.05;4.53;;;4.20;1.00;;;;;;5046657;28;20505;-72
2021/10/16 03:27:12;;;;;;;7.50;4.95;;;4.20;1.00;;;;;;5047858;28;20239;-72
2021/10/16 03:29:37;;;;;;;8.70;4.40;;;4.20;1.00;;;;;;5053594;28;20272;-72
2021/10/16 03:32:04;;;;;;;8.40;4.67;;;4.30;1.00;;;;;;5045674;28;20255;-72
2021/10/16 03:34:34;;;;;;;6.75;4.65;;;4.30;1.00;;;;;;5052295;28;20195;-72
2021/10/16 03:37:00;;;;;;;6.80;4.80;;;;;;;;;;5056866;28;20261;-72
2021/10/16 03:39:26;;;;;;;9.95;4.60;;;4.30;1.00;;;;;;5053533;28;20469;-72
2021/10/16 03:41:51;;;;;;;10.90;5.83;;;4.30;1.00;;;;;;5061479;28;20678;-72
2021/10/16 03:44:17;;;;;;;6.77;5.00;;;4.30;1.00;;;;;;5056680;28;20172;-72
2021/10/16 03:46:43;;;;;;;8.70;5.43;;;4.30;1.00;;;;;;5057175;28;20172;-74
2021/10/16 03:49:10;;;;;;;6.60;5.33;;;4.30;1.00;;;;;;5059606;28;20174;-74
2021/10/16 03:51:36;;;;;;;9.85;6.20;;;4.30;1.00;;;;;;5051676;28;20184;-74
2021/10/16 03:54:02;;;;;;;13.37;6.30;;;4.30;1.00;;;;;;5056939;28;20187;-74
2021/10/16 03:56:28;;;;;;;10.93;5.03;;;4.40;1.00;;;;;;5049434;28;20208;-74
2021/10/16 03:58:54;;;;;;;14.43;5.30;;;;;;;;;;5056676;28;20180;-74
2021/10/16 04:01:20;;;;;;;7.97;5.25;;;;;;;;;;5055811;28;20182;-72
2021/10/16 04:03:45;;;;;;;9.95;5.00;;;4.40;1.00;;;;;;5051986;28;20204;-72
2021/10/16 04:06:11;;;;;;;11.43;5.10;;;;;;;;;;5055051;28;20246;-72
2021/10/16 04:08:37;;;;;;;9.48;5.78;;;4.40;1.00;;;;;;5043972;28;20229;-72
2021/10/16 04:11:03;;;;;;;10.30;5.13;;;4.50;1.00;;;;;;5047642;28;20175;-72
2021/10/16 04:13:29;;;;;;;8.77;5.63;;;;;;;;;;5051560;28;20219;-72
2021/10/16 04:15:55;;;;;;;11.10;5.40;;;;;;;;;;5037223;28;20253;-72
2021/10/16 04:18:21;;;;;;;7.40;4.90;;;4.50;1.00;;;;;;5041158;28;20907;-72
2021/10/16 04:20:47;;;;;;;8.37;5.30;;;4.60;1.00;;;;;;5046867;28;20258;-72
2021/10/16 04:23:13;;;;;;;8.82;5.95;;;4.60;1.00;;;;;;5049704;28;20175;-73
2021/10/16 04:25:39;;;;;;;10.10;5.43;;;;;;;;;;5049830;28;20569;-72
2021/10/16 04:28:05;;;;;;;9.90;5.93;;;4.70;1.00;;;;;;5047746;28;20184;-72
2021/10/16 04:30:31;;;;;;;9.57;6.30;;;4.80;1.00;;;;;;5036542;28;20180;-74
2021/10/16 04:32:59;;;;;;;6.80;5.57;;;;;;;;;;5040898;28;20417;-74
2021/10/16 04:35:25;;;;;;;8.40;5.72;;;4.80;1.00;;;;;;5051681;28;20251;-74
2021/10/16 04:37:52;;;;;;;8.82;5.70;;;4.90;1.00;;;;;;5053129;28;20179;-74
2021/10/16 04:40:20;;;;;;;16.40;6.43;;;4.90;1.00;;;;;;5045069;28;20196;-74
2021/10/16 04:43:16;;;;;;;11.30;6.40;;;5.00;1.00;;;;;;5055357;28;20183;-75
2021/10/16 04:45:45;;;;;;;9.67;5.80;;;5.00;1.00;;;;;;5054351;28;20271;-72
2021/10/16 04:48:11;;;;;;;8.13;5.87;;;;;;;;;;5055776;28;20954;-72
2021/10/16 04:50:37;;;;;;;8.52;5.55;;;5.20;1.00;;;;;;5055935;28;20882;-72
2021/10/16 04:53:03;;;;;;;7.07;5.20;;;5.20;1.00;;;;;;5055844;28;20183;-72
2021/10/16 04:55:29;;;;;;;12.33;6.07;;;5.30;1.00;;;;;;5052940;28;20948;-72
2021/10/16 04:57:54;;;;;;;6.43;4.53;;;5.40;1.00;;;;;;5038635;28;20187;-73
2021/10/16 05:00:20;;;;;;;9.23;5.20;;;5.40;1.00;;;;;;5043038;28;20488;-73
2021/10/16 05:02:46;;;;;;;8.00;5.37;;;5.50;1.00;;;;;;5055936;28;20160;-73
2021/10/16 05:05:12;;;;;;;8.83;5.00;;;5.50;1.00;;;;;;5045041;28;20411;-74
2021/10/16 05:07:38;;;;;;;5.90;3.67;;;5.50;1.00;;;;;;5046543;28;20656;-74
2021/10/16 05:10:04;;;;;;;7.70;4.60;;;5.60;1.00;;;;;;5055469;28;20484;-74
2021/10/16 05:12:30;;;;;;;3.47;2.77;;;;;;;;;;5054401;28;20634;-74
2021/10/16 05:14:56;;;;;;;5.83;3.43;;;5.60;1.00;;;;;;5042859;28;20422;-75
2021/10/16 05:17:22;;;;;;;7.27;4.07;;;5.70;1.00;;;;;;5050184;28;20466;-73
2021/10/16 05:19:48;;;;;;;3.77;3.40;;;5.80;1.00;;;;;;5040193;28;20686;-73
2021/10/16 05:22:14;;;;;;;6.87;5.00;;;;;;;;;;5045715;28;20449;-72
2021/10/16 05:24:40;;;;;;;5.67;4.07;;;5.90;1.00;;;;;;5056889;28;20554;-73
2021/10/16 05:27:06;;;;;;;6.43;4.47;;;5.90;1.00;;;;;;5045391;28;20513;-74
2021/10/16 05:29:32;;;;;;;6.57;4.70;;;;;;;;;;5035390;28;20396;-73
2021/10/16 05:32:02;;;;;;;4.67;3.10;;;6.00;1.00;;;;;;5035426;28;20391;-73
2021/10/16 05:34:28;;;;;;;4.90;4.20;;;6.00;1.00;;;;;;5041130;28;20466;-72
2021/10/16 05:36:56;;;;;;;6.50;3.30;;;6.00;1.00;;;;;;5049902;28;20448;-73
2021/10/16 05:39:22;;;;;;;2.70;2.50;;;6.00;1.00;;;;;;5043962;28;20223;-73
2021/10/16 05:41:49;;;;;;;3.27;3.07;;;6.10;1.00;;;;;;5058159;28;20525;-72
2021/10/16 05:44:16;;;;;;;6.30;3.13;;;6.10;1.00;;;;;;5045479;28;20418;-72
2021/10/16 05:46:42;;;;;;;5.87;3.70;;;6.10;1.00;;;;;;5054252;28;20770;-72
2021/10/16 05:49:09;;;;;;;3.50;3.20;;;6.20;1.00;;;;;;5034187;28;20427;-72
2021/10/16 05:51:35;;;;;;;5.03;2.70;;;6.20;1.00;;;;;;5034546;28;20428;-72
2021/10/16 05:54:11;;;;;;;5.83;4.00;;;6.20;1.00;;;;;;5049895;28;20517;-73
2021/10/16 05:56:37;;;;;;;6.10;2.70;;;6.30;1.00;;;;;;5054318;28;20401;-72
2021/10/16 05:59:03;;;;;;;7.90;3.77;;;6.30;1.00;;;;;;5053876;28;20418;-73
2021/10/16 06:01:30;;;;;;;3.20;2.50;;;6.40;1.00;;;;;;5046474;28;20443;-74
2021/10/16 06:03:56;;;;;;;2.90;2.67;;;6.30;1.00;;;;;;5047234;28;20422;-74
2021/10/16 06:06:23;;;;;;;5.10;3.70;;;6.40;1.00;;;;;;5049005;28;20495;-74
2021/10/16 06:08:57;;;;;;;3.80;3.00;;;6.40;1.00;;;;;;5046818;28;20929;-74
2021/10/16 06:11:28;;;;;;;6.63;3.80;;;6.40;1.00;;;;;;5054203;28;20514;-74
2021/10/16 06:13:55;;;;;;;6.77;3.50;;;6.50;1.00;;;;;;5054148;28;20398;-74
2021/10/16 06:16:25;;;;;;;3.70;3.00;;;6.50;1.00;;;;;;5054378;28;20886;-73
2021/10/16 06:18:51;;;;;;;12.40;3.73;;;6.60;1.00;;;;;;5050086;28;20433;-72
2021/10/16 06:21:17;;;;;;;6.93;3.40;;;6.70;1.00;;;;;;5039299;28;20430;-73
2021/10/16 06:23:43;;;;;;;8.27;3.43;;;6.70;1.00;;;;;;5053935;28;20422;-72
2021/10/16 06:26:10;;;;;;;5.03;3.73;;;6.80;1.00;;;;;;5050088;28;20451;-75
2021/10/16 06:28:36;;;;;;;10.13;5.07;;;6.90;1.00;;;;;;5034492;28;20418;-73
2021/10/16 06:31:02;;;;;;;6.83;4.50;;;6.90;1.00;;;;;;5034079;28;20446;-72
2021/10/16 06:33:28;;;;;;;15.20;4.37;;;7.00;1.00;;;;;;5050014;28;20429;-74
2021/10/16 06:36:00;;;;;;;8.07;4.60;;;7.10;1.00;;;;;;5040065;28;20446;-75
2021/10/16 06:38:26;;;;;;;7.67;4.30;;;7.10;1.00;;;;;;5043495;28;20503;-75
2021/10/16 06:40:52;;;;;;;10.33;5.97;;;7.10;1.00;;;;;;5047009;28;20439;-75
2021/10/16 06:43:18;;;;;;;9.83;4.67;;;7.20;1.00;;;;;;5047183;28;20183;-74
2021/10/16 06:45:43;;;;;;;16.30;4.70;;;7.10;1.00;;;;;;5043657;28;20655;-74
2021/10/16 06:48:10;;;;;;;10.77;5.37;;;;;;;;;;5045101;28;20438;-74
2021/10/16 06:50:35;;;;;;;17.50;5.73;;;7.30;1.00;;;;;;5043355;28;20183;-74
2021/10/16 06:53:04;;;;;;;7.67;5.10;;;7.30;1.00;;;;;;5051970;28;20412;-74
2021/10/16 06:55:34;;;;;;;9.27;5.90;;;7.40;1.00;;;;;;5049589;28;20289;-77
2021/10/16 06:58:00;;;;;;;11.07;4.80;;;7.40;1.00;;;;;;5053318;28;20417;-74
2021/10/16 07:00:28;;;;;;;14.47;4.27;;;7.50;1.00;;;;;;5037583;28;20468;-74
2021/10/16 07:02:54;;;;;;;8.73;4.40;;;7.60;1.00;;;;;;5053233;28;20184;-72
2021/10/16 07:05:22;;;;;;;8.47;5.40;;;7.60;1.00;;;;;;5052433;28;20707;-79
2021/10/16 07:07:48;;;;;;;9.23;4.57;;;7.70;1.00;;;;;;5051766;28;20507;-72
2021/10/16 07:10:14;;;;;;;8.93;4.73;;;7.80;1.00;;;;;;5053321;28;20493;-73
2021/10/16 07:12:40;;;;;;;9.53;4.53;;;7.80;1.00;;;;;;5045290;28;20174;-72
2021/10/16 07:15:06;;;;;;;11.40;6.23;;;7.90;1.00;;;;;;5042769;28;20180;-72
2021/10/16 07:17:32;;;;;;;7.30;4.30;;;7.80;1.00;;;;;;5049619;28;20928;-72
2021/10/16 07:19:58;;;;;;;8.60;4.60;;;7.90;1.00;;;;;;5035910;28;20437;-73
2021/10/16 07:22:24;;;;;;;7.00;4.40;;;8.00;1.00;;;;;;5049187;28;20191;-73
2021/10/16 07:24:50;;;;;;;9.47;5.70;;;;;;;;;;5042361;28;20437;-73
2021/10/16 07:27:17;;;;;;;8.47;4.37;;;8.20;1.00;;;;;;5036477;28;20458;-73
2021/10/16 07:29:43;;;;;;;10.53;5.90;;;8.20;1.00;;;;;;5043463;28;20461;-73
2021/10/16 07:32:10;;;;;;;8.83;5.97;;;8.40;1.00;;;;;;5037942;28;20418;-73
2021/10/16 07:34:36;;;;;;;8.10;5.00;;;8.50;1.00;;;;;;5043118;28;20501;-73
2021/10/16 07:37:02;;;;;;;17.50;5.80;;;8.70;1.00;;;;;;5041599;28;20546;-73
2021/10/16 07:39:28;;;;;;;6.83;4.63;;;8.70;1.00;;;;;;5046310;28;20290;-73
2021/10/16 07:41:54;;;;;;;7.67;5.30;;;8.90;1.00;;;;;;5052713;28;20512;-73
2021/10/16 07:44:20;;;;;;;6.97;4.57;;;;;;;;;;5043579;28;20176;-73
2021/10/16 07:46:46;;;;;;;9.10;4.97;;;;;;;;;;5049168;28;20214;-73
2021/10/16 07:49:17;;;;;;;9.60;4.53;;;;;;;;;;5045566;28;20418;-73
2021/10/16 07:51:43;;;;;;;8.40;4.30;;;9.50;1.00;;;;;;5045864;28;20442;-73
2021/10/16 07:54:08;;;;;;;5.67;4.17;;;9.60;1.00;;;;;;5044848;28;20450;-73
2021/10/16 07:56:34;;;;;;;8.13;4.00;;;9.80;1.00;;;;;;5040121;28;20517;-73
2021/10/16 07:59:00;;;;;;;6.53;3.77;;;9.80;1.00;;;;;;5041238;28;20631;-73
2021/10/16 08:01:27;;;;;;;8.53;3.90;;;9.80;1.00;;;;;;5037429;28;20806;-73
2021/10/16 08:03:53;;;;;;;7.50;4.27;;;9.90;1.00;;;;;;5033040;28;20419;-74
2021/10/16 08:06:20;;;;;;;6.90;3.97;;;9.90;1.00;;;;;;5052318;28;20469;-74
2021/10/16 08:08:45;;;;;;;8.10;4.33;;;9.90;1.00;;;;;;5052460;28;20457;-74
2021/10/16 08:11:11;;;;;;;4.87;3.10;;;9.90;1.00;;;;;;5046345;28;20454;-74
2021/10/16 08:13:37;;;;;;;9.03;3.47;;;9.90;1.00;;;;;;5052866;28;20198;-74
2021/10/16 08:16:04;;;;;;;4.03;3.03;;;9.70;1.00;;;;;;5056133;28;20194;-74
2021/10/16 08:18:30;;;;;;;13.03;3.60;;;9.70;1.00;;;;;;5054090;28;20458;-75
2021/10/16 08:20:55;;;;;;;3.00;2.63;;;9.70;1.00;;;;;;5050811;28;20454;-74
2021/10/16 08:23:22;;;;;;;4.67;3.00;;;9.60;1.00;;;;;;5036312;28;20187;-74
2021/10/16 08:25:47;;;;;;;3.60;3.30;;;9.60;1.00;;;;;;5055226;28;20203;-74
2021/10/16 08:28:17;;;;;;;4.60;3.10;;;9.60;1.00;;;;;;5047125;28;20429;-75
2021/10/16 08:30:50;;;;;;;15.83;3.77;;;9.60;1.00;;;;;;5049972;28;20180;-74
2021/10/16 08:33:17;;;;;;;7.23;3.03;;;;;;;;;;5050843;28;20433;-76
2021/10/16 08:35:43;;;;;;;5.93;3.70;;;9.60;1.00;;;;;;5048012;28;20402;-75
2021/10/16 08:38:10;;;;;;;9.60;4.10;;;9.60;1.00;;;;;;5068091;28;20444;-75
2021/10/16 08:40:41;;;;;;;8.40;3.90;;;9.60;1.00;;;;;;5035843;28;20442;-75
2021/10/16 08:43:11;;;;;;;5.23;3.53;;;9.50;1.00;;;;;;5037485;28;21035;-75
2021/10/16 08:45:37;;;;;;;4.20;3.10;;;9.50;1.00;;;;;;5044271;28;20885;-75
2021/10/16 08:48:06;;;;;;;10.80;4.20;;;9.50;1.00;;;;;;5063309;28;20808;-75
2021/10/16 08:50:34;;;;;;;3.90;3.13;;;9.50;1.00;;;;;;5051991;28;20425;-74
2021/10/16 08:53:00;;;;;;;8.53;3.50;;;9.50;1.00;;;;;;5051384;28;20454;-74
2021/10/16 08:55:26;;;;;;;6.23;3.47;;;;;;;;;;5051205;28;20500;-75
2021/10/16 08:57:52;;;;;;;4.23;3.20;;;9.50;1.00;;;;;;5037123;28;20778;-75
2021/10/16 09:00:42;;;;;;;4.47;3.03;;;;;;;;;;5051994;28;20422;-74
2021/10/16 09:03:30;;;;;;;8.67;3.53;;;9.60;1.00;;;;;;5050116;28;20184;-75
2021/10/16 09:06:00;;;;;;;5.87;3.13;;;9.70;1.00;;;;;;5037306;28;20466;-74
2021/10/16 09:08:37;;;;;;;3.37;2.73;;;9.80;1.00;;;;;;5046671;28;20419;-74
2021/10/16 09:11:33;;;;;;;7.43;4.17;;;9.90;1.00;;;;;;5039278;28;20418;-74
2021/10/16 09:14:02;;;;;;;3.87;3.47;;;10.00;1.00;;;;;;5042339;28;20434;-74
2021/10/16 09:16:31;;;;;;;13.10;4.50;;;10.10;1.00;;;;;;5047180;28;20455;-74
2021/10/16 09:19:15;;;;;;;5.57;2.90;;;10.20;1.00;;;;;;5038829;28;20422;-74
2021/10/16 09:21:49;;;;;;;6.27;3.20;;;10.30;1.00;;;;;;5046550;28;20414;-74
2021/10/16 09:24:18;;;;;;;8.20;4.03;;;10.40;1.00;;;;;;5053367;28;20426;-73
2021/10/16 09:26:47;;;;;;;6.57;3.93;;;10.40;1.00;;;;;;5046118;28;20413;-74
2021/10/16 09:29:15;;;;;;;4.50;3.20;;;10.40;1.00;;;;;;5052573;28;20425;-73
2021/10/16 09:31:47;;;;;;;7.20;3.23;;;10.60;1.00;;;;;;5039889;28;20432;-74
2021/10/16 09:34:13;;;;;;;5.57;3.17;;;10.60;1.00;;;;;;5050381;28;20920;-74
2021/10/16 09:36:42;;;;;;;8.07;3.60;;;10.60;1.00;;;;;;5048304;28;20461;-74
2021/10/16 09:39:15;;;;;;;9.87;3.37;;;10.80;1.00;;;;;;5043526;28;20786;-74
2021/10/16 09:41:41;;;;;;;6.53;3.40;;;10.90;1.00;;;;;;5065835;28;20886;-75
2021/10/16 09:44:31;;;;;;;5.23;3.40;;;10.90;1.00;;;;;;5049339;28;20444;-74
2021/10/16 09:47:01;;;;;;;5.20;2.80;;;11.00;1.00;;;;;;5053397;28;20278;-75
2021/10/16 09:49:39;;;;;;;4.13;2.83;;;11.00;1.00;;;;;;5054623;28;20417;-74
2021/10/16 09:52:07;;;;;;;7.70;3.60;;;11.10;1.00;;;;;;5047063;28;20424;-73
2021/10/16 09:54:34;;;;;;;6.43;3.23;;;11.20;1.00;;;;;;5050195;28;20770;-74
2021/10/16 09:57:05;;;;;;;6.40;3.53;;;11.30;1.00;;;;;;5044039;28;20931;-73
2021/10/16 09:59:32;;;;;;;4.50;2.70;;;11.30;1.00;;;;;;5050887;28;20438;-73
2021/10/16 10:02:00;;;;;;;8.40;3.93;;;11.50;1.00;;;;;;5040212;28;20522;-74
2021/10/16 10:04:45;;;;;;;3.73;2.47;;;11.60;1.00;;;;;;5040810;28;20418;-73
2021/10/16 10:07:13;;;;;;;3.47;2.90;;;11.70;1.00;;;;;;5054569;28;20809;-74
2021/10/16 10:09:41;;;;;;;11.00;3.27;;;11.80;1.00;;;;;;5045788;28;20484;-74
2021/10/16 10:12:09;;;;;;;5.13;2.97;;;11.80;1.00;;;;;;5051633;28;20471;-74
2021/10/16 10:14:42;;;;;;;8.00;3.30;;;11.80;1.00;;;;;;5040913;28;20414;-74
2021/10/16 10:17:12;;;;;;;7.43;3.40;;;11.80;1.00;;;;;;5053308;28;20464;-74
2021/10/16 10:19:42;;;;;;;5.77;3.43;;;;;;;;;;5042366;28;20458;-74
2021/10/16 10:22:16;;;;;;;5.47;3.73;;;11.90;1.00;;;;;;5049787;28;20482;-74
2021/10/16 10:24:44;;;;;;;6.10;2.90;;;12.00;1.00;;;;;;5050635;28;20416;-74
2021/10/16 10:27:12;;;;;;;8.33;3.17;;;12.10;1.00;;;;;;5047438;28;20442;-74
2021/10/16 10:29:43;;;;;;;13.43;2.83;;;12.20;1.00;;;;;;5044225;28;20454;-74
2021/10/16 10:32:28;;;;;;;2.60;2.40;;;12.30;1.00;;;;;;5045768;28;20429;-74
2021/10/16 10:34:58;;;;;;;5.07;2.60;;;12.40;1.00;;;;;;5057044;28;20920;-74
2021/10/16 10:37:31;;;;;;;5.17;2.60;;;12.50;1.00;;;;;;5066110;28;20472;-74
2021/10/16 10:39:58;;;;;;;3.57;2.40;;;12.60;1.00;;;;;;5049599;28;20481;-74
2021/10/16 10:42:28;;;;;;;9.60;2.70;;;12.70;1.00;;;;;;5042088;28;20417;-75
2021/10/16 10:44:59;;;;;;;6.83;2.03;;;12.90;1.00;;;;;;5047572;28;20411;-75
2021/10/16 10:47:30;;;;;;;5.50;2.90;;;12.90;1.00;;;;;;5052277;28;20426;-75
2021/10/16 10:49:58;;;;;;;5.93;2.80;;;13.00;1.00;;;;;;5053482;28;20418;-74
2021/10/16 10:52:27;;;;;;;5.20;2.20;;;;;;;;;;5060282;28;20410;-74
2021/10/16 10:55:08;;;;;;;7.00;2.57;;;13.20;1.00;;;;;;5051551;28;20419;-74
2021/10/16 10:57:47;;;;;;;2.20;1.97;;;13.40;1.00;;;;;;5039747;28;20455;-74
2021/10/16 11:00:15;;;;;;;2.33;2.07;;;13.50;1.00;;;;;;5041465;28;20525;-74
2021/10/16 11:02:42;;;;;;;3.03;2.40;;;13.50;1.00;;;;;;5033266;28;20411;-74
2021/10/16 11:08:05;;;;;;;3.73;2.37;;;13.60;1.00;;;;;;5054147;28;20398;-74
2021/10/16 11:10:31;;;;;;;7.60;3.03;;;13.60;1.00;;;;;;5042761;28;20460;-74
2021/10/16 11:12:56;;;;;;;4.80;3.80;;;13.60;1.00;;;;;;5042432;28;20420;-75
2021/10/16 11:15:22;;;;;;;7.33;3.57;;;13.70;1.00;;;;;;5041000;28;20975;-75
2021/10/16 11:17:52;;;;;;;4.53;2.70;;;13.80;1.00;;;;;;5045021;28;20238;-75
2021/10/16 11:20:27;;;;;;;3.40;2.30;;;;;;;;;;5041252;28;20178;-75
2021/10/16 11:22:55;;;;;;;7.13;2.97;;;13.90;1.00;;;;;;5032833;28;20462;-74
2021/10/16 11:25:31;;;;;;;6.60;2.40;;;13.80;1.00;;;;;;5036811;28;20422;-74
2021/10/16 11:28:09;;;;;;;5.40;1.63;;;13.80;1.00;;;;;;5048210;28;20440;-74
2021/10/16 11:30:43;;;;;;;5.10;2.53;;;13.70;1.00;;;;;;5048974;28;20481;-74
2021/10/16 11:33:11;;;;;;;3.70;2.50;;;13.80;1.00;;;;;;5051735;28;20418;-74
2021/10/16 11:35:38;;;;;;;5.70;2.80;;;13.90;1.00;;;;;;5047822;28;20902;-74
2021/10/16 11:38:13;;;;;;;3.60;1.47;;;14.00;1.00;;;;;;5045887;28;20952;-75
2021/10/16 11:40:39;;;;;;;5.27;1.70;;;14.10;1.00;;;;;;5050460;28;20445;-75
2021/10/16 11:43:17;;;;;;;9.03;1.63;;;14.00;1.00;;;;;;5044175;28;20422;-74
2021/10/16 11:45:46;;;;;;;9.10;1.83;;;13.90;1.00;;;;;;5043820;28;20885;-74
2021/10/16 11:48:25;;;;;;;5.27;1.80;;;14.00;1.00;;;;;;5056173;28;21526;-75
2021/10/16 11:50:57;;;;;;;1.93;1.30;;;14.10;1.00;;;;;;5057022;28;20418;-75
2021/10/16 11:53:35;;;;;;;1.87;1.50;;;14.10;1.00;;;;;;5039875;28;20427;-74
2021/10/16 11:56:06;;;;;;;2.70;1.70;;;14.20;1.00;;;;;;5046093;28;20427;-73
2021/10/16 11:58:33;;;;;;;12.23;2.20;;;14.10;1.00;;;;;;5044253;28;20400;-74
2021/10/16 12:01:04;;;;;;;1.97;1.60;;;14.10;1.00;;;;;;5056406;28;20722;-74
2021/10/16 12:03:42;;;;;;;1.80;1.20;;;14.20;1.00;;;;;;5054944;28;20794;-74
2021/10/16 12:06:10;;;;;;;4.80;1.60;;;14.30;1.00;;;;;;5052739;28;20400;-75
2021/10/16 12:08:42;;;;;;;3.37;1.90;;;14.30;1.00;;;;;;5053631;28;20454;-74
2021/10/16 12:11:19;;;;;;;3.87;1.60;;;14.30;1.00;;;;;;5054649;28;20521;-74
2021/10/16 12:14:09;;;;;;;1.90;1.70;;;14.40;1.00;;;;;;5044229;28;20414;-74
2021/10/16 12:16:43;;;;;;;2.83;1.50;;;14.40;1.00;;;;;;5046264;28;20458;-74
2021/10/16 12:19:20;;;;;;;7.90;1.60;;;14.40;1.00;;;;;;5043213;28;21142;-74
2021/10/16 12:21:50;;;;;;;2.33;1.40;;;14.50;1.00;;;;;;5038505;28;20423;-74
2021/10/16 12:24:24;;;;;;;10.43;1.40;;;14.60;1.00;;;;;;5036739;28;20401;-74
2021/10/16 12:27:09;;;;;;;2.97;1.23;;;14.70;1.00;;;;;;5058265;28;20789;-74
2021/10/16 12:29:38;;;;;;;17.57;1.60;;;14.90;1.00;;;;;;5051809;28;20400;-75
2021/10/16 12:32:08;;;;;;;6.90;1.30;;;15.00;1.00;;;;;;5047762;28;20419;-74
2021/10/16 12:34:37;;;;;;;6.93;1.47;;;15.00;1.00;;;;;;5056141;28;20381;-74
2021/10/16 12:37:06;;;;;;;2.70;1.23;;;15.10;1.00;;;;;;5053411;28;20428;-74
2021/10/16 12:39:41;;;;;;;8.20;1.43;;;15.10;1.00;;;;;;5055637;28;20446;-74
2021/10/16 12:42:20;;;;;;;1.00;0.80;;;15.10;1.00;;;;;;5055653;28;20444;-74
2021/10/16 12:44:51;;;;;;;3.97;1.30;;;15.00;1.00;;;;;;5054653;28;20778;-75
2021/10/16 12:47:23;;;;;;;0.80;0.80;;;15.00;1.00;;;;;;5055238;28;20422;-75
2021/10/16 12:50:01;;;;;;;1.63;1.07;;;15.10;1.00;;;;;;5048207;28;20433;-74
2021/10/16 12:52:44;;;;;;;2.07;1.37;;;15.10;1.00;;;;;;5056710;28;20457;-74
2021/10/16 12:55:17;;;;;;;3.73;1.67;;;15.20;1.00;;;;;;5054422;28;20467;-74
2021/10/16 12:58:07;;;;;;;1.70;1.23;;;15.30;1.00;;;;;;5044581;28;20927;-75
2021/10/16 13:00:39;;;;;;;3.13;1.40;;;15.30;1.00;;;;;;5034880;28;20838;-74
2021/10/16 13:03:07;;;;;;;2.23;1.50;;;15.40;1.00;;;;;;5035884;28;20390;-74
2021/10/16 13:05:33;;;;;;;2.53;1.10;;;15.40;1.00;;;;;;5041219;28;20411;-75
2021/10/16 13:07:59;;;;;;;4.00;1.23;;;15.50;1.00;;;;;;5049025;28;20472;-75
2021/10/16 13:10:26;;;;;;;0.97;0.97;;;15.50;1.00;;;;;;5042969;28;20382;-75
2021/10/16 13:12:52;;;;;;;6.47;1.63;;;15.40;1.00;;;;;;5055349;28;20488;-75
2021/10/16 13:15:23;;;;;;;1.97;1.43;;;15.40;1.00;;;;;;5055276;28;20890;-74
2021/10/16 13:17:52;;;;;;;1.97;1.20;;;15.50;1.00;;;;;;5049618;28;20681;-74
2021/10/16 13:20:18;;;;;;;3.63;1.07;;;15.60;1.00;;;;;;5053909;28;20898;-74
2021/10/16 13:22:47;;;;;;;3.30;1.10;;;15.50;1.00;;;;;;5048579;28;20475;-74
2021/10/16 13:25:14;;;;;;;1.53;0.97;;;15.50;1.00;;;;;;5044151;28;20180;-74